sensor_id;sensor_type;location;lat;lon;timestamp;P1;durP1;ratioP1;P2;durP2;ratioP2
15913;SDS011;8055;51.930;8.840;2024-01-30T00:02:09;27.77;;;17.80;;
15913;SDS011;8055;51.930;8.840;2024-01-30T00:04:34;29.50;;;18.17;;
15913;SDS011;8055;51.930;8.840;2024-01-30T00:06:59;27.15;;;17.92;;
15913;SDS011;8055;51.930;8.840;2024-01-30T00:09:25;29.30;;;17.67;;
15913;SDS011;8055;51.930;8.840;2024-01-30T00:11:50;26.55;;;17.83;;
15913;SDS011;8055;51.930;8.840;2024-01-30T00:14:16;29.65;;;18.77;;
15913;SDS011;8055;51.930;8.840;2024-01-30T00:16:41;27.83;;;17.20;;
15913;SDS011;8055;51.930;8.840;2024-01-30T00:19:06;25.95;;;17.42;;
15913;SDS011;8055;51.930;8.840;2024-01-30T00:21:33;28.70;;;18.23;;
15913;SDS011;8055;51.930;8.840;2024-01-30T00:23:59;25.40;;;17.48;;
15913;SDS011;8055;51.930;8.840;2024-01-30T00:26:24;26.48;;;17.92;;
15913;SDS011;8055;51.930;8.840;2024-01-30T00:28:49;29.13;;;17.30;;
15913;SDS011;8055;51.930;8.840;2024-01-30T00:31:15;30.30;;;17.48;;
15913;SDS011;8055;51.930;8.840;2024-01-30T00:33:41;32.67;;;18.75;;
15913;SDS011;8055;51.930;8.840;2024-01-30T00:36:07;29.50;;;18.40;;
15913;SDS011;8055;51.930;8.840;2024-01-30T00:38:33;28.23;;;17.90;;
15913;SDS011;8055;51.930;8.840;2024-01-30T00:40:59;27.98;;;17.42;;
15913;SDS011;8055;51.930;8.840;2024-01-30T00:43:24;27.92;;;16.20;;
15913;SDS011;8055;51.930;8.840;2024-01-30T00:45:50;25.23;;;16.30;;
15913;SDS011;8055;51.930;8.840;2024-01-30T00:48:17;28.02;;;16.92;;
15913;SDS011;8055;51.930;8.840;2024-01-30T00:50:43;27.05;;;17.85;;
15913;SDS011;8055;51.930;8.840;2024-01-30T00:53:08;27.83;;;17.67;;
15913;SDS011;8055;51.930;8.840;2024-01-30T00:55:35;28.52;;;17.92;;
15913;SDS011;8055;51.930;8.840;2024-01-30T00:58:00;28.55;;;17.58;;
15913;SDS011;8055;51.930;8.840;2024-01-30T01:00:26;29.88;;;17.67;;
15913;SDS011;8055;51.930;8.840;2024-01-30T01:02:56;28.15;;;17.27;;
15913;SDS011;8055;51.930;8.840;2024-01-30T01:05:22;25.23;;;17.20;;
15913;SDS011;8055;51.930;8.840;2024-01-30T01:07:47;29.40;;;17.90;;
15913;SDS011;8055;51.930;8.840;2024-01-30T01:10:13;30.05;;;17.63;;
15913;SDS011;8055;51.930;8.840;2024-01-30T01:12:39;30.65;;;18.25;;
15913;SDS011;8055;51.930;8.840;2024-01-30T01:15:05;24.70;;;17.58;;
15913;SDS011;8055;51.930;8.840;2024-01-30T01:17:34;27.10;;;16.35;;
15913;SDS011;8055;51.930;8.840;2024-01-30T01:19:59;27.15;;;17.42;;
15913;SDS011;8055;51.930;8.840;2024-01-30T01:22:25;29.77;;;18.13;;
15913;SDS011;8055;51.930;8.840;2024-01-30T01:24:50;28.25;;;17.85;;
15913;SDS011;8055;51.930;8.840;2024-01-30T01:27:15;29.55;;;17.13;;
15913;SDS011;8055;51.930;8.840;2024-01-30T01:29:41;27.35;;;17.42;;
15913;SDS011;8055;51.930;8.840;2024-01-30T01:32:06;25.48;;;17.40;;
15913;SDS011;8055;51.930;8.840;2024-01-30T01:34:31;24.55;;;16.70;;
15913;SDS011;8055;51.930;8.840;2024-01-30T01:36:57;24.98;;;16.00;;
15913;SDS011;8055;51.930;8.840;2024-01-30T01:39:22;27.15;;;17.58;;
15913;SDS011;8055;51.930;8.840;2024-01-30T01:41:50;23.95;;;16.05;;
15913;SDS011;8055;51.930;8.840;2024-01-30T01:44:17;32.15;;;18.58;;
15913;SDS011;8055;51.930;8.840;2024-01-30T01:46:43;27.48;;;17.60;;
15913;SDS011;8055;51.930;8.840;2024-01-30T01:49:09;24.88;;;15.98;;
15913;SDS011;8055;51.930;8.840;2024-01-30T01:51:35;27.83;;;17.33;;
15913;SDS011;8055;51.930;8.840;2024-01-30T01:54:02;31.05;;;18.45;;
15913;SDS011;8055;51.930;8.840;2024-01-30T01:56:29;26.23;;;17.83;;
15913;SDS011;8055;51.930;8.840;2024-01-30T01:58:55;29.90;;;19.17;;
15913;SDS011;8055;51.930;8.840;2024-01-30T02:01:25;28.85;;;18.65;;
15913;SDS011;8055;51.930;8.840;2024-01-30T02:03:52;29.20;;;19.35;;
15913;SDS011;8055;51.930;8.840;2024-01-30T02:06:18;32.63;;;19.45;;
15913;SDS011;8055;51.930;8.840;2024-01-30T02:08:44;29.17;;;18.52;;
15913;SDS011;8055;51.930;8.840;2024-01-30T02:11:09;26.88;;;18.38;;
15913;SDS011;8055;51.930;8.840;2024-01-30T02:13:36;29.83;;;18.83;;
15913;SDS011;8055;51.930;8.840;2024-01-30T02:16:02;29.42;;;19.23;;
15913;SDS011;8055;51.930;8.840;2024-01-30T02:18:27;31.10;;;19.98;;
15913;SDS011;8055;51.930;8.840;2024-01-30T02:20:53;31.38;;;19.88;;
15913;SDS011;8055;51.930;8.840;2024-01-30T02:23:21;33.38;;;20.25;;
15913;SDS011;8055;51.930;8.840;2024-01-30T02:25:50;33.15;;;20.20;;
15913;SDS011;8055;51.930;8.840;2024-01-30T02:28:17;27.63;;;18.38;;
15913;SDS011;8055;51.930;8.840;2024-01-30T02:30:43;30.25;;;19.45;;
15913;SDS011;8055;51.930;8.840;2024-01-30T02:33:08;28.65;;;17.67;;
15913;SDS011;8055;51.930;8.840;2024-01-30T02:35:34;30.73;;;18.27;;
15913;SDS011;8055;51.930;8.840;2024-01-30T02:37:59;28.83;;;17.85;;
15913;SDS011;8055;51.930;8.840;2024-01-30T02:40:24;28.52;;;16.58;;
15913;SDS011;8055;51.930;8.840;2024-01-30T02:42:50;27.20;;;17.73;;
15913;SDS011;8055;51.930;8.840;2024-01-30T02:45:15;32.28;;;17.73;;
15913;SDS011;8055;51.930;8.840;2024-01-30T02:47:40;24.90;;;16.58;;
15913;SDS011;8055;51.930;8.840;2024-01-30T02:50:06;28.13;;;17.17;;
15913;SDS011;8055;51.930;8.840;2024-01-30T02:52:32;27.52;;;16.55;;
15913;SDS011;8055;51.930;8.840;2024-01-30T02:54:57;27.38;;;15.98;;
15913;SDS011;8055;51.930;8.840;2024-01-30T02:57:22;25.65;;;16.90;;
15913;SDS011;8055;51.930;8.840;2024-01-30T02:59:48;30.20;;;18.63;;
15913;SDS011;8055;51.930;8.840;2024-01-30T03:02:13;29.92;;;19.52;;
15913;SDS011;8055;51.930;8.840;2024-01-30T03:04:40;31.85;;;19.60;;
15913;SDS011;8055;51.930;8.840;2024-01-30T03:07:06;29.35;;;18.60;;
15913;SDS011;8055;51.930;8.840;2024-01-30T03:09:31;29.90;;;19.48;;
15913;SDS011;8055;51.930;8.840;2024-01-30T03:11:57;32.10;;;20.13;;
15913;SDS011;8055;51.930;8.840;2024-01-30T03:14:22;30.27;;;18.90;;
15913;SDS011;8055;51.930;8.840;2024-01-30T03:16:47;28.13;;;18.38;;
15913;SDS011;8055;51.930;8.840;2024-01-30T03:19:12;29.85;;;19.42;;
15913;SDS011;8055;51.930;8.840;2024-01-30T03:21:38;29.98;;;19.90;;
15913;SDS011;8055;51.930;8.840;2024-01-30T03:24:03;29.90;;;19.30;;
15913;SDS011;8055;51.930;8.840;2024-01-30T03:26:29;33.67;;;20.00;;
15913;SDS011;8055;51.930;8.840;2024-01-30T03:28:54;27.88;;;17.83;;
15913;SDS011;8055;51.930;8.840;2024-01-30T03:31:19;30.50;;;17.90;;
15913;SDS011;8055;51.930;8.840;2024-01-30T03:33:45;29.73;;;18.45;;
15913;SDS011;8055;51.930;8.840;2024-01-30T03:36:11;32.05;;;19.58;;
15913;SDS011;8055;51.930;8.840;2024-01-30T03:38:36;35.00;;;19.38;;
15913;SDS011;8055;51.930;8.840;2024-01-30T03:41:01;32.90;;;19.75;;
15913;SDS011;8055;51.930;8.840;2024-01-30T03:43:27;29.45;;;19.08;;
15913;SDS011;8055;51.930;8.840;2024-01-30T03:45:52;29.70;;;20.02;;
15913;SDS011;8055;51.930;8.840;2024-01-30T03:48:18;29.35;;;18.95;;
15913;SDS011;8055;51.930;8.840;2024-01-30T03:50:44;31.90;;;20.40;;
15913;SDS011;8055;51.930;8.840;2024-01-30T03:53:09;38.15;;;20.50;;
15913;SDS011;8055;51.930;8.840;2024-01-30T03:55:34;30.58;;;20.20;;
15913;SDS011;8055;51.930;8.840;2024-01-30T03:58:00;28.83;;;18.48;;
15913;SDS011;8055;51.930;8.840;2024-01-30T04:00:26;29.67;;;19.77;;
15913;SDS011;8055;51.930;8.840;2024-01-30T04:02:51;30.55;;;19.50;;
15913;SDS011;8055;51.930;8.840;2024-01-30T04:05:17;27.92;;;17.50;;
15913;SDS011;8055;51.930;8.840;2024-01-30T04:07:42;30.17;;;18.55;;
15913;SDS011;8055;51.930;8.840;2024-01-30T04:10:08;30.52;;;18.52;;
15913;SDS011;8055;51.930;8.840;2024-01-30T04:12:34;27.25;;;17.90;;
15913;SDS011;8055;51.930;8.840;2024-01-30T04:15:00;26.40;;;17.02;;
15913;SDS011;8055;51.930;8.840;2024-01-30T04:17:26;29.70;;;17.73;;
15913;SDS011;8055;51.930;8.840;2024-01-30T04:19:51;26.52;;;16.30;;
15913;SDS011;8055;51.930;8.840;2024-01-30T04:22:16;27.05;;;17.35;;
15913;SDS011;8055;51.930;8.840;2024-01-30T04:24:42;28.05;;;17.13;;
15913;SDS011;8055;51.930;8.840;2024-01-30T04:27:07;28.02;;;17.17;;
15913;SDS011;8055;51.930;8.840;2024-01-30T04:29:32;31.15;;;18.85;;
15913;SDS011;8055;51.930;8.840;2024-01-30T04:31:58;31.52;;;21.17;;
15913;SDS011;8055;51.930;8.840;2024-01-30T04:34:23;34.85;;;21.70;;
15913;SDS011;8055;51.930;8.840;2024-01-30T04:36:49;34.08;;;21.40;;
15913;SDS011;8055;51.930;8.840;2024-01-30T04:39:14;36.33;;;23.05;;
15913;SDS011;8055;51.930;8.840;2024-01-30T04:41:40;39.58;;;24.75;;
15913;SDS011;8055;51.930;8.840;2024-01-30T04:44:05;41.05;;;25.27;;
15913;SDS011;8055;51.930;8.840;2024-01-30T04:46:31;35.67;;;24.23;;
15913;SDS011;8055;51.930;8.840;2024-01-30T04:48:59;36.90;;;23.80;;
15913;SDS011;8055;51.930;8.840;2024-01-30T04:51:24;37.00;;;24.52;;
15913;SDS011;8055;51.930;8.840;2024-01-30T04:53:49;34.40;;;23.48;;
15913;SDS011;8055;51.930;8.840;2024-01-30T04:56:15;41.63;;;24.60;;
15913;SDS011;8055;51.930;8.840;2024-01-30T04:58:40;42.60;;;25.73;;
15913;SDS011;8055;51.930;8.840;2024-01-30T05:01:05;43.42;;;25.17;;
15913;SDS011;8055;51.930;8.840;2024-01-30T05:03:34;36.70;;;25.50;;
15913;SDS011;8055;51.930;8.840;2024-01-30T05:06:00;41.22;;;24.38;;
15913;SDS011;8055;51.930;8.840;2024-01-30T05:08:25;46.30;;;28.98;;
15913;SDS011;8055;51.930;8.840;2024-01-30T05:10:50;41.35;;;26.95;;
15913;SDS011;8055;51.930;8.840;2024-01-30T05:13:16;42.17;;;27.10;;
15913;SDS011;8055;51.930;8.840;2024-01-30T05:15:41;43.33;;;26.77;;
15913;SDS011;8055;51.930;8.840;2024-01-30T05:18:07;39.90;;;26.65;;
15913;SDS011;8055;51.930;8.840;2024-01-30T05:20:32;44.80;;;26.52;;
15913;SDS011;8055;51.930;8.840;2024-01-30T05:22:57;38.33;;;24.88;;
15913;SDS011;8055;51.930;8.840;2024-01-30T05:25:23;38.60;;;25.02;;
15913;SDS011;8055;51.930;8.840;2024-01-30T05:27:48;36.35;;;24.45;;
15913;SDS011;8055;51.930;8.840;2024-01-30T05:30:15;42.05;;;26.40;;
15913;SDS011;8055;51.930;8.840;2024-01-30T05:32:40;42.72;;;24.27;;
15913;SDS011;8055;51.930;8.840;2024-01-30T05:35:06;41.70;;;25.33;;
15913;SDS011;8055;51.930;8.840;2024-01-30T05:37:33;41.70;;;27.33;;
15913;SDS011;8055;51.930;8.840;2024-01-30T05:39:58;42.40;;;27.20;;
15913;SDS011;8055;51.930;8.840;2024-01-30T05:42:24;41.42;;;26.83;;
15913;SDS011;8055;51.930;8.840;2024-01-30T05:44:50;39.60;;;26.63;;
15913;SDS011;8055;51.930;8.840;2024-01-30T05:47:15;39.70;;;24.55;;
15913;SDS011;8055;51.930;8.840;2024-01-30T05:49:41;41.92;;;26.25;;
15913;SDS011;8055;51.930;8.840;2024-01-30T05:52:07;37.45;;;25.25;;
15913;SDS011;8055;51.930;8.840;2024-01-30T05:54:32;40.03;;;25.70;;
15913;SDS011;8055;51.930;8.840;2024-01-30T05:56:57;37.50;;;24.77;;
15913;SDS011;8055;51.930;8.840;2024-01-30T05:59:23;45.47;;;26.50;;
15913;SDS011;8055;51.930;8.840;2024-01-30T06:01:48;37.70;;;24.70;;
15913;SDS011;8055;51.930;8.840;2024-01-30T06:04:14;38.05;;;24.00;;
15913;SDS011;8055;51.930;8.840;2024-01-30T06:06:40;38.05;;;25.65;;
15913;SDS011;8055;51.930;8.840;2024-01-30T06:09:06;38.17;;;24.05;;
15913;SDS011;8055;51.930;8.840;2024-01-30T06:11:33;35.85;;;23.65;;
15913;SDS011;8055;51.930;8.840;2024-01-30T06:13:58;32.58;;;20.75;;
15913;SDS011;8055;51.930;8.840;2024-01-30T06:16:23;31.25;;;20.67;;
15913;SDS011;8055;51.930;8.840;2024-01-30T06:18:49;35.30;;;21.38;;
15913;SDS011;8055;51.930;8.840;2024-01-30T06:21:14;31.10;;;19.70;;
15913;SDS011;8055;51.930;8.840;2024-01-30T06:23:40;32.58;;;20.25;;
15913;SDS011;8055;51.930;8.840;2024-01-30T06:26:06;34.58;;;19.88;;
15913;SDS011;8055;51.930;8.840;2024-01-30T06:28:32;29.95;;;19.23;;
15913;SDS011;8055;51.930;8.840;2024-01-30T06:30:57;31.20;;;18.73;;
15913;SDS011;8055;51.930;8.840;2024-01-30T06:33:22;33.60;;;19.95;;
15913;SDS011;8055;51.930;8.840;2024-01-30T06:35:48;37.90;;;25.05;;
15913;SDS011;8055;51.930;8.840;2024-01-30T06:38:13;32.35;;;21.30;;
15913;SDS011;8055;51.930;8.840;2024-01-30T06:40:40;34.58;;;22.25;;
15913;SDS011;8055;51.930;8.840;2024-01-30T06:43:06;33.50;;;21.35;;
15913;SDS011;8055;51.930;8.840;2024-01-30T06:45:32;32.65;;;19.98;;
15913;SDS011;8055;51.930;8.840;2024-01-30T06:47:59;28.13;;;18.45;;
15913;SDS011;8055;51.930;8.840;2024-01-30T06:50:24;29.63;;;20.00;;
15913;SDS011;8055;51.930;8.840;2024-01-30T06:52:50;36.58;;;20.73;;
15913;SDS011;8055;51.930;8.840;2024-01-30T06:55:16;31.13;;;21.42;;
15913;SDS011;8055;51.930;8.840;2024-01-30T06:57:41;41.75;;;28.75;;
15913;SDS011;8055;51.930;8.840;2024-01-30T07:00:07;45.90;;;29.48;;
15913;SDS011;8055;51.930;8.840;2024-01-30T07:02:32;42.20;;;28.20;;
15913;SDS011;8055;51.930;8.840;2024-01-30T07:04:58;39.80;;;25.27;;
15913;SDS011;8055;51.930;8.840;2024-01-30T07:07:23;38.60;;;25.20;;
15913;SDS011;8055;51.930;8.840;2024-01-30T07:09:49;45.72;;;25.67;;
15913;SDS011;8055;51.930;8.840;2024-01-30T07:12:17;37.03;;;24.33;;
15913;SDS011;8055;51.930;8.840;2024-01-30T07:14:43;43.38;;;26.42;;
15913;SDS011;8055;51.930;8.840;2024-01-30T07:17:08;42.03;;;24.77;;
15913;SDS011;8055;51.930;8.840;2024-01-30T07:19:33;41.28;;;25.67;;
15913;SDS011;8055;51.930;8.840;2024-01-30T07:22:00;42.65;;;25.52;;
15913;SDS011;8055;51.930;8.840;2024-01-30T07:24:26;47.33;;;27.90;;
15913;SDS011;8055;51.930;8.840;2024-01-30T07:26:52;45.17;;;27.77;;
15913;SDS011;8055;51.930;8.840;2024-01-30T07:29:17;40.53;;;27.42;;
15913;SDS011;8055;51.930;8.840;2024-01-30T07:31:43;41.55;;;28.23;;
15913;SDS011;8055;51.930;8.840;2024-01-30T07:34:08;43.05;;;26.98;;
15913;SDS011;8055;51.930;8.840;2024-01-30T07:36:34;39.67;;;26.30;;
15913;SDS011;8055;51.930;8.840;2024-01-30T07:38:59;41.35;;;25.75;;
15913;SDS011;8055;51.930;8.840;2024-01-30T07:41:24;37.58;;;23.92;;
15913;SDS011;8055;51.930;8.840;2024-01-30T07:43:50;38.15;;;24.25;;
15913;SDS011;8055;51.930;8.840;2024-01-30T07:46:16;35.88;;;23.60;;
15913;SDS011;8055;51.930;8.840;2024-01-30T07:48:41;39.28;;;23.23;;
15913;SDS011;8055;51.930;8.840;2024-01-30T07:51:06;38.33;;;23.40;;
15913;SDS011;8055;51.930;8.840;2024-01-30T07:53:32;37.20;;;22.30;;
15913;SDS011;8055;51.930;8.840;2024-01-30T07:55:57;34.65;;;23.80;;
15913;SDS011;8055;51.930;8.840;2024-01-30T07:58:22;40.92;;;24.38;;
15913;SDS011;8055;51.930;8.840;2024-01-30T08:00:48;36.70;;;22.35;;
15913;SDS011;8055;51.930;8.840;2024-01-30T08:03:14;37.22;;;21.92;;
15913;SDS011;8055;51.930;8.840;2024-01-30T08:05:41;36.50;;;23.40;;
15913;SDS011;8055;51.930;8.840;2024-01-30T08:08:07;40.42;;;24.05;;
15913;SDS011;8055;51.930;8.840;2024-01-30T08:10:32;37.13;;;23.70;;
15913;SDS011;8055;51.930;8.840;2024-01-30T08:12:57;41.20;;;24.15;;
15913;SDS011;8055;51.930;8.840;2024-01-30T08:15:23;37.85;;;23.52;;
15913;SDS011;8055;51.930;8.840;2024-01-30T08:17:48;39.35;;;24.45;;
15913;SDS011;8055;51.930;8.840;2024-01-30T08:20:14;35.00;;;21.63;;
15913;SDS011;8055;51.930;8.840;2024-01-30T08:22:39;35.97;;;23.30;;
15913;SDS011;8055;51.930;8.840;2024-01-30T08:25:08;36.13;;;23.95;;
15913;SDS011;8055;51.930;8.840;2024-01-30T08:27:35;43.45;;;24.73;;
15913;SDS011;8055;51.930;8.840;2024-01-30T08:30:02;36.65;;;22.42;;
15913;SDS011;8055;51.930;8.840;2024-01-30T08:32:28;39.17;;;25.42;;
15913;SDS011;8055;51.930;8.840;2024-01-30T08:34:53;36.72;;;23.42;;
15913;SDS011;8055;51.930;8.840;2024-01-30T08:37:18;40.85;;;24.70;;
15913;SDS011;8055;51.930;8.840;2024-01-30T08:39:44;40.03;;;26.33;;
15913;SDS011;8055;51.930;8.840;2024-01-30T08:42:09;40.38;;;26.10;;
15913;SDS011;8055;51.930;8.840;2024-01-30T08:44:35;44.75;;;27.15;;
15913;SDS011;8055;51.930;8.840;2024-01-30T08:47:00;43.45;;;26.05;;
15913;SDS011;8055;51.930;8.840;2024-01-30T08:49:26;47.67;;;30.63;;
15913;SDS011;8055;51.930;8.840;2024-01-30T08:51:51;40.63;;;27.13;;
15913;SDS011;8055;51.930;8.840;2024-01-30T08:54:17;43.63;;;29.30;;
15913;SDS011;8055;51.930;8.840;2024-01-30T08:56:42;39.72;;;26.45;;
15913;SDS011;8055;51.930;8.840;2024-01-30T08:59:08;44.08;;;26.95;;
15913;SDS011;8055;51.930;8.840;2024-01-30T09:01:33;38.17;;;25.15;;
15913;SDS011;8055;51.930;8.840;2024-01-30T09:03:59;38.08;;;24.45;;
15913;SDS011;8055;51.930;8.840;2024-01-30T09:06:24;38.47;;;24.90;;
15913;SDS011;8055;51.930;8.840;2024-01-30T09:08:52;36.33;;;23.38;;
15913;SDS011;8055;51.930;8.840;2024-01-30T09:11:18;35.95;;;21.20;;
15913;SDS011;8055;51.930;8.840;2024-01-30T09:13:43;31.30;;;20.63;;
15913;SDS011;8055;51.930;8.840;2024-01-30T09:16:09;34.45;;;21.58;;
15913;SDS011;8055;51.930;8.840;2024-01-30T09:18:34;38.50;;;22.90;;
15913;SDS011;8055;51.930;8.840;2024-01-30T09:20:59;32.05;;;20.08;;
15913;SDS011;8055;51.930;8.840;2024-01-30T09:23:26;32.85;;;19.33;;
15913;SDS011;8055;51.930;8.840;2024-01-30T09:25:52;30.77;;;19.70;;
15913;SDS011;8055;51.930;8.840;2024-01-30T09:28:18;32.17;;;19.65;;
15913;SDS011;8055;51.930;8.840;2024-01-30T09:30:43;27.33;;;18.35;;
15913;SDS011;8055;51.930;8.840;2024-01-30T09:33:09;28.88;;;17.05;;
15913;SDS011;8055;51.930;8.840;2024-01-30T09:35:35;32.70;;;19.75;;
15913;SDS011;8055;51.930;8.840;2024-01-30T09:38:03;25.45;;;17.92;;
15913;SDS011;8055;51.930;8.840;2024-01-30T09:40:29;26.67;;;17.02;;
15913;SDS011;8055;51.930;8.840;2024-01-30T09:42:54;28.58;;;16.88;;
15913;SDS011;8055;51.930;8.840;2024-01-30T09:45:23;23.48;;;16.05;;
15913;SDS011;8055;51.930;8.840;2024-01-30T09:47:49;25.08;;;16.88;;
15913;SDS011;8055;51.930;8.840;2024-01-30T09:50:15;22.98;;;15.90;;
15913;SDS011;8055;51.930;8.840;2024-01-30T09:52:42;26.10;;;16.95;;
15913;SDS011;8055;51.930;8.840;2024-01-30T09:55:08;24.35;;;16.27;;
15913;SDS011;8055;51.930;8.840;2024-01-30T09:57:34;20.95;;;15.50;;
15913;SDS011;8055;51.930;8.840;2024-01-30T10:00:00;26.20;;;16.60;;
15913;SDS011;8055;51.930;8.840;2024-01-30T10:02:27;21.67;;;15.27;;
15913;SDS011;8055;51.930;8.840;2024-01-30T10:04:52;25.70;;;15.10;;
15913;SDS011;8055;51.930;8.840;2024-01-30T10:07:18;24.40;;;16.80;;
15913;SDS011;8055;51.930;8.840;2024-01-30T10:09:44;26.70;;;16.10;;
15913;SDS011;8055;51.930;8.840;2024-01-30T10:12:10;23.83;;;15.80;;
15913;SDS011;8055;51.930;8.840;2024-01-30T10:14:38;23.95;;;15.32;;
15913;SDS011;8055;51.930;8.840;2024-01-30T10:17:04;21.70;;;14.93;;
15913;SDS011;8055;51.930;8.840;2024-01-30T10:19:30;24.95;;;13.95;;
15913;SDS011;8055;51.930;8.840;2024-01-30T10:21:56;22.40;;;15.32;;
15913;SDS011;8055;51.930;8.840;2024-01-30T10:24:24;25.92;;;17.10;;
15913;SDS011;8055;51.930;8.840;2024-01-30T10:26:50;28.85;;;19.10;;
15913;SDS011;8055;51.930;8.840;2024-01-30T10:29:16;29.98;;;19.15;;
15913;SDS011;8055;51.930;8.840;2024-01-30T10:31:42;29.85;;;18.80;;
15913;SDS011;8055;51.930;8.840;2024-01-30T10:34:07;25.88;;;17.83;;
15913;SDS011;8055;51.930;8.840;2024-01-30T10:36:33;25.48;;;17.25;;
15913;SDS011;8055;51.930;8.840;2024-01-30T10:39:06;24.58;;;16.92;;
15913;SDS011;8055;51.930;8.840;2024-01-30T10:41:31;22.80;;;15.90;;
15913;SDS011;8055;51.930;8.840;2024-01-30T10:44:08;21.35;;;15.15;;
15913;SDS011;8055;51.930;8.840;2024-01-30T10:46:35;22.10;;;15.82;;
15913;SDS011;8055;51.930;8.840;2024-01-30T10:49:03;24.15;;;16.40;;
15913;SDS011;8055;51.930;8.840;2024-01-30T10:51:29;21.45;;;15.00;;
15913;SDS011;8055;51.930;8.840;2024-01-30T10:53:56;21.35;;;15.23;;
15913;SDS011;8055;51.930;8.840;2024-01-30T10:56:22;21.42;;;15.60;;
15913;SDS011;8055;51.930;8.840;2024-01-30T10:58:49;20.48;;;14.70;;
15913;SDS011;8055;51.930;8.840;2024-01-30T11:01:16;30.80;;;15.98;;
15913;SDS011;8055;51.930;8.840;2024-01-30T11:03:43;22.17;;;14.82;;
15913;SDS011;8055;51.930;8.840;2024-01-30T11:06:10;22.05;;;14.57;;
15913;SDS011;8055;51.930;8.840;2024-01-30T11:08:39;26.38;;;14.77;;
15913;SDS011;8055;51.930;8.840;2024-01-30T11:11:07;25.10;;;15.45;;
15913;SDS011;8055;51.930;8.840;2024-01-30T11:13:33;23.90;;;15.13;;
15913;SDS011;8055;51.930;8.840;2024-01-30T11:16:00;21.00;;;13.60;;
15913;SDS011;8055;51.930;8.840;2024-01-30T11:18:30;20.65;;;13.38;;
15913;SDS011;8055;51.930;8.840;2024-01-30T11:20:56;20.80;;;14.13;;
15913;SDS011;8055;51.930;8.840;2024-01-30T11:23:27;20.30;;;13.30;;
15913;SDS011;8055;51.930;8.840;2024-01-30T11:25:53;19.35;;;11.95;;
15913;SDS011;8055;51.930;8.840;2024-01-30T11:28:19;10.82;;;6.03;;
15913;SDS011;8055;51.930;8.840;2024-01-30T11:30:47;17.38;;;9.40;;
15913;SDS011;8055;51.930;8.840;2024-01-30T11:33:15;15.73;;;10.07;;
15913;SDS011;8055;51.930;8.840;2024-01-30T11:35:52;12.63;;;8.35;;
15913;SDS011;8055;51.930;8.840;2024-01-30T11:38:17;12.88;;;6.20;;
15913;SDS011;8055;51.930;8.840;2024-01-30T11:40:43;12.70;;;9.18;;
15913;SDS011;8055;51.930;8.840;2024-01-30T11:43:09;11.15;;;6.28;;
15913;SDS011;8055;51.930;8.840;2024-01-30T11:45:35;6.90;;;5.20;;
15913;SDS011;8055;51.930;8.840;2024-01-30T11:48:01;12.27;;;5.60;;
15913;SDS011;8055;51.930;8.840;2024-01-30T11:50:31;8.70;;;4.85;;
15913;SDS011;8055;51.930;8.840;2024-01-30T11:52:58;7.75;;;4.80;;
15913;SDS011;8055;51.930;8.840;2024-01-30T11:55:25;8.52;;;4.72;;
15913;SDS011;8055;51.930;8.840;2024-01-30T11:57:50;10.20;;;5.15;;
15913;SDS011;8055;51.930;8.840;2024-01-30T12:00:17;10.23;;;4.78;;
15913;SDS011;8055;51.930;8.840;2024-01-30T12:02:44;11.75;;;5.15;;
15913;SDS011;8055;51.930;8.840;2024-01-30T12:05:09;9.23;;;4.88;;
15913;SDS011;8055;51.930;8.840;2024-01-30T12:07:34;9.90;;;4.72;;
15913;SDS011;8055;51.930;8.840;2024-01-30T12:10:00;8.15;;;5.05;;
15913;SDS011;8055;51.930;8.840;2024-01-30T12:12:26;8.85;;;4.57;;
15913;SDS011;8055;51.930;8.840;2024-01-30T12:14:53;10.25;;;4.55;;
15913;SDS011;8055;51.930;8.840;2024-01-30T12:17:33;7.95;;;4.75;;
15913;SDS011;8055;51.930;8.840;2024-01-30T12:22:40;18.35;;;5.40;;
15913;SDS011;8055;51.930;8.840;2024-01-30T12:25:10;9.60;;;5.15;;
15913;SDS011;8055;51.930;8.840;2024-01-30T12:27:36;9.45;;;5.57;;
15913;SDS011;8055;51.930;8.840;2024-01-30T12:30:06;8.38;;;5.32;;
15913;SDS011;8055;51.930;8.840;2024-01-30T12:32:34;9.77;;;5.22;;
15913;SDS011;8055;51.930;8.840;2024-01-30T12:35:00;11.93;;;5.05;;
15913;SDS011;8055;51.930;8.840;2024-01-30T12:37:26;13.20;;;5.68;;
15913;SDS011;8055;51.930;8.840;2024-01-30T12:39:52;8.20;;;5.65;;
15913;SDS011;8055;51.930;8.840;2024-01-30T12:42:19;10.15;;;5.65;;
15913;SDS011;8055;51.930;8.840;2024-01-30T12:44:45;10.38;;;5.75;;
15913;SDS011;8055;51.930;8.840;2024-01-30T12:47:11;11.77;;;6.35;;
15913;SDS011;8055;51.930;8.840;2024-01-30T12:49:36;13.18;;;6.28;;
15913;SDS011;8055;51.930;8.840;2024-01-30T12:52:01;12.82;;;5.80;;
15913;SDS011;8055;51.930;8.840;2024-01-30T12:54:27;13.32;;;5.85;;
15913;SDS011;8055;51.930;8.840;2024-01-30T12:56:53;11.98;;;6.25;;
15913;SDS011;8055;51.930;8.840;2024-01-30T12:59:18;12.75;;;6.05;;
15913;SDS011;8055;51.930;8.840;2024-01-30T13:01:44;12.48;;;5.63;;
15913;SDS011;8055;51.930;8.840;2024-01-30T13:04:09;9.95;;;6.03;;
15913;SDS011;8055;51.930;8.840;2024-01-30T13:06:34;12.68;;;5.68;;
15913;SDS011;8055;51.930;8.840;2024-01-30T13:09:00;10.43;;;6.15;;
15913;SDS011;8055;51.930;8.840;2024-01-30T13:11:25;12.95;;;6.68;;
15913;SDS011;8055;51.930;8.840;2024-01-30T13:13:51;15.63;;;6.40;;
15913;SDS011;8055;51.930;8.840;2024-01-30T13:16:16;10.82;;;5.93;;
15913;SDS011;8055;51.930;8.840;2024-01-30T13:18:43;8.43;;;5.60;;
15913;SDS011;8055;51.930;8.840;2024-01-30T13:21:09;11.00;;;6.50;;
15913;SDS011;8055;51.930;8.840;2024-01-30T13:23:34;10.30;;;6.05;;
15913;SDS011;8055;51.930;8.840;2024-01-30T13:26:00;13.52;;;6.60;;
15913;SDS011;8055;51.930;8.840;2024-01-30T13:28:25;11.57;;;5.78;;
15913;SDS011;8055;51.930;8.840;2024-01-30T13:30:51;11.60;;;6.43;;
15913;SDS011;8055;51.930;8.840;2024-01-30T13:33:17;12.90;;;6.50;;
15913;SDS011;8055;51.930;8.840;2024-01-30T13:35:42;16.25;;;6.82;;
15913;SDS011;8055;51.930;8.840;2024-01-30T13:38:08;13.18;;;7.03;;
15913;SDS011;8055;51.930;8.840;2024-01-30T13:40:33;15.80;;;6.22;;
15913;SDS011;8055;51.930;8.840;2024-01-30T13:42:59;15.30;;;7.10;;
15913;SDS011;8055;51.930;8.840;2024-01-30T13:45:24;12.20;;;6.65;;
15913;SDS011;8055;51.930;8.840;2024-01-30T13:47:49;13.63;;;6.65;;
15913;SDS011;8055;51.930;8.840;2024-01-30T13:50:15;16.55;;;6.60;;
15913;SDS011;8055;51.930;8.840;2024-01-30T13:52:42;12.20;;;6.38;;
15913;SDS011;8055;51.930;8.840;2024-01-30T13:55:08;11.60;;;7.20;;
15913;SDS011;8055;51.930;8.840;2024-01-30T13:57:35;13.65;;;6.78;;
15913;SDS011;8055;51.930;8.840;2024-01-30T14:00:01;10.35;;;6.40;;
15913;SDS011;8055;51.930;8.840;2024-01-30T14:02:30;18.05;;;7.38;;
15913;SDS011;8055;51.930;8.840;2024-01-30T14:04:55;12.88;;;6.70;;
15913;SDS011;8055;51.930;8.840;2024-01-30T14:07:21;14.38;;;6.72;;
15913;SDS011;8055;51.930;8.840;2024-01-30T14:09:47;14.30;;;7.00;;
15913;SDS011;8055;51.930;8.840;2024-01-30T14:12:13;17.15;;;6.93;;
15913;SDS011;8055;51.930;8.840;2024-01-30T14:14:39;11.73;;;6.75;;
15913;SDS011;8055;51.930;8.840;2024-01-30T14:17:04;10.95;;;6.60;;
15913;SDS011;8055;51.930;8.840;2024-01-30T14:19:32;9.98;;;6.80;;
15913;SDS011;8055;51.930;8.840;2024-01-30T14:21:59;13.55;;;6.70;;
15913;SDS011;8055;51.930;8.840;2024-01-30T14:24:25;12.63;;;6.97;;
15913;SDS011;8055;51.930;8.840;2024-01-30T14:26:52;13.13;;;6.72;;
15913;SDS011;8055;51.930;8.840;2024-01-30T14:29:17;12.48;;;7.15;;
15913;SDS011;8055;51.930;8.840;2024-01-30T14:31:43;16.05;;;7.65;;
15913;SDS011;8055;51.930;8.840;2024-01-30T14:34:08;12.65;;;7.03;;